Crestview Terrace, Illinois
Current Conditions -  °F | °C
As of 10:35 PM on Tuesday 21 Oct 2014 (Local Time) from KFWC Reporting Station
Clear Clear  
Wind Chill: 45°   Ceiling: Unl
Heat Index: 47°   Visibility: 10mi
Dew Point: 41°   Wind: 5mph
Humidity: 79%   Direction: 340°NNW
Pressure: 30.2"   Gusts: NA
Location:  38.3669°N, 88.3516°W
Report Text: KFWC 220335Z AUTO 34004KT 10SM CLR 08/05 A3020 RMK AO1 T00820048
Loading
Personal Weather Stations






























Interactive Weather Map
Tropical Storm Tracking
New forecast layout! Learn more

10-Day Weather Forecast

Advertisements
Track Severe Weather on mobile